Main page
METAR-TAF:

METAR-TAF

Airports :

Santa Fe Regional Airport

Santa Fe, New Mexico, United States

latitude: 35-36-38N, longitude: 106-05-42W, elevation: 6344 ft

Current weather observation

The report was made 1 hour and 4 minutes ago, at 11:53 UTC
Wind 12 mph from the North/Northeast
Temperature 32°F
Humidity 64%
Pressure 30.28 in. Hg
Visibility: 10 miles
Clear sky

METAR: KSAF 251153Z AUTO 03010KT 10SM CLR 00/M06 A3028 RMK AO2 SLP214 T00001061 10039 21006 53002

Time: 06:57 (12:57 UTC)

Forecast

The report was made 1 hour and 37 minutes ago, at 11:20 UTC
Forecast valid from 25 at 12 UTC to 26 at 12 UTC
Wind 12 mph from the North
Visibility: 6 miles
Clear sky
From 25 at 2000 UTC
Wind 12 mph from the West
Visibility: 6 miles
Clear sky
From 26 at 0300 UTC
Wind 7 mph from the North
Visibility: 6 miles
Few clouds at a height of 25000 ft

TAF: KSAF 251120Z 2512/2612 01010KT P6SM SKC FM252000 27010KT P6SM SKC FM260300 01006KT P6SM FEW250

Weather observations and forecasts of more than 4000 airports (METAR and TAF reports).

The available stations are represented by yellow and red dots on the map.

Hover mouse over dot to see the name of the station.

Then click to see weather observations and forecasts.

To change the map : click on the green buttons with a black cross to zoom in, on the green button with a dash to zoom out, or on the green arrows for adjacent maps.


METAR-TAF: